Terminal Aerodrome Forecast
Issued by NWS Topeka, KS

Home | Current Version | Previous Version | Text Only | Print | Product List | Glossary On
Versions: 1 2 3 4 5 6 7 8 9 10 11 12 13 14 15 16 17 18 19 20 21 22 23 24 25 26 27 28
756
FTUS43 KTOP 282339
TAFTOP
TAF
KTOP 282339Z 2900/2924 22006KT P6SM FEW040
     FM290700 20002KT 6SM MIFG BR SKC
     FM291300 23007KT P6SM SKC
     FM292000 16007KT P6SM SCT150=

USA.gov is the U.S. government's official web portal to all federal, state and local government web resources and services.